createdAt,value
2023-02-15T00:42:26.184Z,81.21
2023-02-15T00:44:52.764Z,81.60
2023-02-15T00:47:20.821Z,81.60
2023-02-15T00:49:47.398Z,81.74
2023-02-15T00:52:13.961Z,81.83
2023-02-15T00:54:40.573Z,81.86
2023-02-15T00:57:07.239Z,82.11
2023-02-15T00:59:33.797Z,82.10
2023-02-15T01:02:00.277Z,82.38
2023-02-15T01:04:26.886Z,81.63
2023-02-15T01:06:53.439Z,81.80
2023-02-15T01:09:19.920Z,82.90
2023-02-15T01:11:46.480Z,82.47
2023-02-15T01:14:14.105Z,82.81
2023-02-15T01:16:40.887Z,82.70
2023-02-15T01:19:07.511Z,82.89
2023-02-15T01:21:35.437Z,82.52
2023-02-15T01:24:03.034Z,82.12
2023-02-15T01:26:29.610Z,83.23
2023-02-15T01:28:57.032Z,82.95
2023-02-15T01:31:23.655Z,82.74
2023-02-15T01:33:50.700Z,83.00
2023-02-15T01:36:18.339Z,83.06
2023-02-15T01:38:45.196Z,82.97
2023-02-15T01:41:20.819Z,83.21
2023-02-15T01:43:50.164Z,82.79
2023-02-15T01:46:21.390Z,82.71
2023-02-15T01:48:54.762Z,82.85
2023-02-15T01:51:28.323Z,82.88
2023-02-15T01:54:09.291Z,82.76
2023-02-15T01:56:38.432Z,82.37
2023-02-15T01:59:09.965Z,83.01
2023-02-15T02:01:36.747Z,82.67
2023-02-15T02:04:06.133Z,83.00
2023-02-15T02:06:34.376Z,83.17
2023-02-15T02:09:02.132Z,83.72
2023-02-15T02:11:29.004Z,83.89
2023-02-15T02:13:57.017Z,84.02
2023-02-15T02:16:43.884Z,84.54
2023-02-15T02:19:46.201Z,84.22
2023-02-15T02:22:20.053Z,84.15
2023-02-15T02:25:28.047Z,84.41
2023-02-15T02:28:19.096Z,84.04
2023-02-15T02:31:03.746Z,84.36
2023-02-15T02:34:00.810Z,83.70
2023-02-15T02:36:37.008Z,84.36
2023-02-15T02:39:28.199Z,84.79
2023-02-15T02:42:14.963Z,84.17
2023-02-15T02:44:52.826Z,84.67
2023-02-15T02:47:28.248Z,84.28
2023-02-15T02:50:02.294Z,84.49
2023-02-15T02:52:39.405Z,84.66
2023-02-15T02:55:17.642Z,84.68
2023-02-15T02:57:55.340Z,84.77
2023-02-15T03:00:26.505Z,84.89
2023-02-15T03:03:05.755Z,84.61
2023-02-15T03:05:35.436Z,84.74
2023-02-15T03:08:07.050Z,85.65
2023-02-15T03:10:37.416Z,85.45
2023-02-15T03:13:06.003Z,86.16
2023-02-15T03:15:56.526Z,85.93
2023-02-15T03:18:29.130Z,85.01
2023-02-15T03:20:56.576Z,85.19
2023-02-15T03:23:25.699Z,85.71
2023-02-15T03:25:59.593Z,85.89
2023-02-15T03:28:52.634Z,85.71
2023-02-15T03:31:22.429Z,85.85
2023-02-15T03:33:56.453Z,86.46
2023-02-15T03:36:37.648Z,86.85
2023-02-15T03:39:23.176Z,85.85
2023-02-15T03:41:59.025Z,86.56
2023-02-15T03:44:31.767Z,86.81
2023-02-15T03:47:20.276Z,86.91
2023-02-15T03:49:57.602Z,86.81
2023-02-15T03:52:27.192Z,86.23
2023-02-15T03:54:54.297Z,86.35
2023-02-15T03:57:42.746Z,86.55
2023-02-15T04:00:40.385Z,86.62
2023-02-15T04:03:15.826Z,86.81
2023-02-15T04:05:44.600Z,86.54
2023-02-15T04:08:11.774Z,86.33
2023-02-15T04:10:53.478Z,86.18
2023-02-15T04:13:24.726Z,86.74
2023-02-15T04:16:04.227Z,86.82
2023-02-15T04:18:58.102Z,86.38
2023-02-15T04:21:45.089Z,86.55
2023-02-15T04:24:30.252Z,86.65
2023-02-15T04:26:57.096Z,86.64
2023-02-15T04:29:25.407Z,87.20
2023-02-15T04:31:53.682Z,86.98
2023-02-15T04:34:20.498Z,87.11
2023-02-15T04:36:47.161Z,87.32
2023-02-15T04:39:15.344Z,87.14
2023-02-15T04:41:41.917Z,87.42
2023-02-15T04:44:08.636Z,87.27
2023-02-15T04:46:35.197Z,87.11
2023-02-15T04:49:01.752Z,87.40
2023-02-15T04:51:28.384Z,87.38
2023-02-15T04:53:54.951Z,87.31
2023-02-15T04:56:22.060Z,87.60
2023-02-15T04:58:49.054Z,87.82
2023-02-15T05:01:16.111Z,87.92
2023-02-15T05:03:42.729Z,87.66
2023-02-15T05:06:09.286Z,87.95
2023-02-15T05:08:35.821Z,88.35
2023-02-15T05:11:02.360Z,87.92
2023-02-15T05:13:28.901Z,88.01
2023-02-15T05:15:55.527Z,87.48
2023-02-15T05:18:22.664Z,87.89
2023-02-15T05:20:49.855Z,88.04
2023-02-15T05:23:16.798Z,88.00
2023-02-15T05:26:07.044Z,88.43
2023-02-15T05:28:34.001Z,87.80
2023-02-15T05:31:03.654Z,87.59
2023-02-15T05:33:30.451Z,87.79
2023-02-15T05:35:57.075Z,87.72
2023-02-15T05:38:23.657Z,88.19
2023-02-15T05:40:52.099Z,88.53
2023-02-15T05:43:19.127Z,88.28
2023-02-15T05:45:54.785Z,88.42
2023-02-15T05:48:23.464Z,88.37
2023-02-15T05:51:03.818Z,88.82
2023-02-15T05:53:32.445Z,88.56
2023-02-15T05:56:03.391Z,88.91
2023-02-15T05:58:33.288Z,88.31
2023-02-15T06:01:00.212Z,88.95
2023-02-15T06:03:29.212Z,88.45
2023-02-15T06:05:55.808Z,88.61
2023-02-15T06:08:22.365Z,88.50
2023-02-15T06:10:48.896Z,88.94
2023-02-15T06:13:15.482Z,88.67
2023-02-15T06:15:42.028Z,88.53
2023-02-15T06:18:08.513Z,88.62
2023-02-15T06:20:35.016Z,88.23
2023-02-15T06:23:01.543Z,88.16
2023-02-15T06:25:28.185Z,88.35
2023-02-15T06:27:54.699Z,88.15
2023-02-15T06:30:21.726Z,88.38
2023-02-15T06:32:48.309Z,88.75
2023-02-15T06:35:16.136Z,89.16
2023-02-15T06:37:45.809Z,89.03
2023-02-15T06:40:12.533Z,88.84
2023-02-15T06:42:39.046Z,89.27
2023-02-15T06:45:07.680Z,89.00
2023-02-15T06:47:35.325Z,89.59
2023-02-15T06:50:01.934Z,89.51
2023-02-15T06:52:29.256Z,89.07
2023-02-15T06:54:55.802Z,89.08
2023-02-15T06:57:22.374Z,88.69
2023-02-15T06:59:49.001Z,89.47
2023-02-15T07:02:16.068Z,89.56
2023-02-15T07:04:42.667Z,89.81
2023-02-15T07:07:11.331Z,89.66
2023-02-15T07:09:38.130Z,89.86
2023-02-15T07:12:23.494Z,90.25
2023-02-15T07:14:50.034Z,90.08
2023-02-15T07:17:35.066Z,89.82
2023-02-15T07:20:07.003Z,89.51
2023-02-15T07:22:34.964Z,89.74
2023-02-15T07:25:01.643Z,90.13
2023-02-15T07:27:28.354Z,90.67
2023-02-15T07:29:54.927Z,90.91
2023-02-15T07:32:21.595Z,90.42
2023-02-15T07:34:48.074Z,90.51
2023-02-15T07:37:14.667Z,90.75
2023-02-15T07:39:41.206Z,90.98
2023-02-15T07:42:07.762Z,91.38
2023-02-15T07:44:34.384Z,91.86
2023-02-15T07:47:00.871Z,91.87
2023-02-15T07:49:27.564Z,91.77
2023-02-15T07:51:54.145Z,91.31
2023-02-15T07:54:20.732Z,91.07
2023-02-15T07:56:47.300Z,91.72
2023-02-15T07:59:14.081Z,92.21
2023-02-15T08:01:40.685Z,92.67
2023-02-15T08:04:08.532Z,92.80
2023-02-15T08:06:36.660Z,92.90
2023-02-15T08:09:08.111Z,92.98
2023-02-15T08:11:43.692Z,93.11
2023-02-15T08:14:12.324Z,93.26
2023-02-15T08:16:53.553Z,93.28
2023-02-15T08:19:24.574Z,93.08
2023-02-15T08:21:58.024Z,92.79
2023-02-15T08:24:26.693Z,92.45
2023-02-15T08:26:53.972Z,92.81
2023-02-15T08:29:24.408Z,93.31
2023-02-15T08:31:54.351Z,93.92
2023-02-15T08:34:22.224Z,93.82
2023-02-15T08:36:48.779Z,94.04
2023-02-15T08:39:16.066Z,94.13
2023-02-15T08:41:44.911Z,94.24
2023-02-15T08:44:12.246Z,94.84
2023-02-15T08:46:42.518Z,95.03
2023-02-15T08:49:15.974Z,94.97
2023-02-15T08:51:42.921Z,94.66
2023-02-15T08:54:13.615Z,94.73
2023-02-15T08:56:42.459Z,94.57
2023-02-15T08:59:15.042Z,94.04
2023-02-15T09:01:41.671Z,94.77
2023-02-15T09:04:09.743Z,94.53
2023-02-15T09:06:40.272Z,94.96
2023-02-15T09:09:08.331Z,94.68
2023-02-15T09:11:37.762Z,94.67
2023-02-15T09:14:09.028Z,95.13
2023-02-15T09:16:37.680Z,95.21
2023-02-15T09:19:08.751Z,95.65
2023-02-15T09:21:39.029Z,95.55
2023-02-15T09:24:09.050Z,95.58
2023-02-15T09:26:38.362Z,94.83
2023-02-15T09:29:05.021Z,94.96
2023-02-15T09:31:34.689Z,95.01
2023-02-15T09:34:02.404Z,94.85
2023-02-15T09:36:37.865Z,94.68
2023-02-15T09:39:12.031Z,95.03
2023-02-15T09:41:54.509Z,95.68
2023-02-15T09:44:31.540Z,95.22
2023-02-15T09:47:11.811Z,95.65
2023-02-15T09:49:58.532Z,95.27
2023-02-15T09:52:32.197Z,95.48
2023-02-15T09:55:32.439Z,95.38
2023-02-15T09:58:08.675Z,95.98
2023-02-15T10:01:03.423Z,95.77
2023-02-15T10:04:06.230Z,95.06
2023-02-15T10:06:47.182Z,95.52
2023-02-15T10:09:28.756Z,95.65
2023-02-15T10:12:10.419Z,95.66
2023-02-15T10:15:05.620Z,95.09
2023-02-15T10:17:50.801Z,95.10
2023-02-15T10:20:29.000Z,95.60
2023-02-15T10:23:29.758Z,94.87
2023-02-15T10:26:15.061Z,95.48
2023-02-15T10:29:08.737Z,95.03
2023-02-15T10:32:07.910Z,94.82
2023-02-15T10:34:44.221Z,94.90
2023-02-15T10:37:29.535Z,94.94
2023-02-15T10:40:08.193Z,93.80
2023-02-15T10:42:59.565Z,93.37
2023-02-15T10:46:08.724Z,93.48
2023-02-15T10:48:53.567Z,92.83
2023-02-15T10:51:44.015Z,92.33
2023-02-15T10:54:19.056Z,92.51
2023-02-15T10:57:14.980Z,91.75
2023-02-15T11:00:05.662Z,91.65
2023-02-15T11:02:56.460Z,91.54
2023-02-15T11:05:49.965Z,91.75
2023-02-15T11:08:17.398Z,90.07
2023-02-15T11:10:54.824Z,87.83
2023-02-15T11:13:25.583Z,86.98
2023-02-15T11:15:57.300Z,87.18
2023-02-15T11:18:32.113Z,85.46
2023-02-15T11:21:12.387Z,85.32
2023-02-15T11:23:45.600Z,84.99
2023-02-15T11:26:34.066Z,85.22
2023-02-15T11:29:19.418Z,85.56
2023-02-15T11:31:50.225Z,84.76
2023-02-15T11:34:35.326Z,84.81
2023-02-15T11:37:21.511Z,84.54
2023-02-15T11:39:52.516Z,84.02
2023-02-15T11:42:25.910Z,83.94
2023-02-15T11:45:32.365Z,85.67
2023-02-15T11:48:00.323Z,84.73
2023-02-15T11:50:30.186Z,83.12
2023-02-15T11:53:03.226Z,82.39
2023-02-15T11:55:30.813Z,82.22
2023-02-15T11:58:09.732Z,82.36
2023-02-15T12:00:53.205Z,81.02
2023-02-15T12:03:39.135Z,78.28
2023-02-15T12:06:12.747Z,79.44
2023-02-15T12:08:44.039Z,77.86
2023-02-15T12:11:16.322Z,78.55
2023-02-15T12:14:06.259Z,79.69
2023-02-15T12:16:49.640Z,78.44
2023-02-15T12:19:33.903Z,78.02
2023-02-15T12:22:03.424Z,76.93
2023-02-15T12:24:39.084Z,76.75
2023-02-15T12:27:15.756Z,77.25
2023-02-15T12:29:46.849Z,77.37
2023-02-15T12:32:23.632Z,77.59
2023-02-15T12:34:52.414Z,76.82
2023-02-15T12:37:23.937Z,75.16
2023-02-15T12:39:58.913Z,75.87
2023-02-15T12:42:28.195Z,76.51
2023-02-15T12:45:03.359Z,77.48
2023-02-15T12:47:32.278Z,76.46
2023-02-15T12:50:24.423Z,77.37
2023-02-15T12:52:52.423Z,76.43
2023-02-15T12:55:25.078Z,76.20
2023-02-15T12:58:16.998Z,75.66
2023-02-15T13:00:43.639Z,75.21
2023-02-15T13:03:19.081Z,75.53
2023-02-15T13:05:49.793Z,72.33
2023-02-15T13:08:50.656Z,74.56
2023-02-15T13:11:31.334Z,74.00
2023-02-15T13:14:16.788Z,72.48
2023-02-15T13:16:45.332Z,71.83
2023-02-15T13:19:17.842Z,71.96
2023-02-15T13:21:48.112Z,71.05
2023-02-15T13:24:30.530Z,71.98
2023-02-15T13:27:13.130Z,70.79
2023-02-15T13:29:43.886Z,71.91
2023-02-15T13:32:23.736Z,72.05
2023-02-15T13:34:50.442Z,70.75
2023-02-15T13:37:26.455Z,70.77
2023-02-15T13:40:07.857Z,71.00
2023-02-15T13:42:42.335Z,69.87
2023-02-15T13:45:31.614Z,70.17
2023-02-15T13:48:21.109Z,71.57
2023-02-15T13:50:53.471Z,70.51
2023-02-15T13:53:38.312Z,71.00
2023-02-15T13:56:36.918Z,71.31
2023-02-15T13:59:13.213Z,72.11
2023-02-15T14:02:19.791Z,71.35
2023-02-15T14:05:11.700Z,70.00
2023-02-15T14:07:50.209Z,69.51
2023-02-15T14:10:41.091Z,69.11
2023-02-15T14:13:29.036Z,67.94
2023-02-15T14:16:18.508Z,68.23
2023-02-15T14:19:11.468Z,67.94
2023-02-15T14:21:50.134Z,67.92
2023-02-15T14:24:47.255Z,68.57
2023-02-15T14:27:48.361Z,68.63
2023-02-15T14:30:21.523Z,67.47
2023-02-15T14:32:59.226Z,68.46
2023-02-15T14:35:29.147Z,68.28
2023-02-15T14:38:02.493Z,69.21
2023-02-15T14:41:01.449Z,68.91
2023-02-15T14:43:46.196Z,67.60
2023-02-15T14:46:47.006Z,67.83
2023-02-15T14:49:17.365Z,68.27
2023-02-15T14:51:43.984Z,68.25
2023-02-15T14:54:33.611Z,68.42
2023-02-15T14:57:03.083Z,69.82
2023-02-15T15:00:07.728Z,70.03
2023-02-15T15:02:40.249Z,69.64
2023-02-15T15:05:19.265Z,69.58
2023-02-15T15:07:53.398Z,69.70
2023-02-15T15:10:21.298Z,69.17
2023-02-15T15:12:53.463Z,68.94
2023-02-15T15:15:31.986Z,69.04
2023-02-15T15:18:04.602Z,69.28
2023-02-15T15:20:42.777Z,69.44
2023-02-15T15:23:45.467Z,69.64
2023-02-15T15:26:30.265Z,69.69
2023-02-15T15:28:59.848Z,69.52
2023-02-15T15:32:00.923Z,70.68
2023-02-15T15:34:44.115Z,70.53
2023-02-15T15:37:10.628Z,70.38
2023-02-15T15:39:55.261Z,70.43
2023-02-15T15:42:21.729Z,70.88
2023-02-15T15:45:15.440Z,70.69
2023-02-15T15:48:09.572Z,71.19
2023-02-15T15:50:41.298Z,71.49
2023-02-15T15:53:19.334Z,71.95
2023-02-15T15:55:49.747Z,71.91
2023-02-15T15:58:19.770Z,71.18
2023-02-15T16:00:51.442Z,71.70
2023-02-15T16:03:26.791Z,72.09
2023-02-15T16:05:57.108Z,72.01
2023-02-15T16:08:39.381Z,72.74
2023-02-15T16:11:16.636Z,72.86
2023-02-15T16:13:44.261Z,72.28
2023-02-15T16:16:14.237Z,73.07
2023-02-15T16:18:43.244Z,73.55
2023-02-15T16:21:19.436Z,73.29
2023-02-15T16:23:52.006Z,72.96
2023-02-15T16:26:44.423Z,73.29
2023-02-15T16:29:19.857Z,73.22
2023-02-15T16:32:27.921Z,73.46
2023-02-15T16:35:02.910Z,73.45
2023-02-15T16:37:34.301Z,73.39
2023-02-15T16:40:01.937Z,73.34
2023-02-15T16:42:28.577Z,73.10
2023-02-15T16:45:08.645Z,73.60
2023-02-15T16:47:42.230Z,72.67
2023-02-15T16:50:19.594Z,73.33
2023-02-15T16:52:46.281Z,72.74
2023-02-15T16:55:23.032Z,72.63
2023-02-15T16:57:50.587Z,72.66
2023-02-15T17:00:24.142Z,72.42
2023-02-15T17:02:58.804Z,72.88
2023-02-15T17:05:34.469Z,72.60
2023-02-15T17:08:06.673Z,72.70
2023-02-15T17:10:42.708Z,72.91
2023-02-15T17:13:14.591Z,72.95
2023-02-15T17:15:45.415Z,73.76
2023-02-15T17:18:19.578Z,72.44
2023-02-15T17:20:48.559Z,72.60
2023-02-15T17:23:36.815Z,73.03
2023-02-15T17:26:16.402Z,72.63
2023-02-15T17:28:53.542Z,72.84
2023-02-15T17:31:21.732Z,72.93
2023-02-15T17:33:48.911Z,73.23
2023-02-15T17:36:20.287Z,73.26
2023-02-15T17:38:58.769Z,73.62
2023-02-15T17:41:26.927Z,73.21
2023-02-15T17:43:53.543Z,72.79
2023-02-15T17:46:23.544Z,73.18
2023-02-15T17:48:52.806Z,72.94
2023-02-15T17:51:20.551Z,72.72
2023-02-15T17:54:05.618Z,72.84
2023-02-15T17:56:33.308Z,72.99
2023-02-15T17:59:00.049Z,72.99
2023-02-15T18:01:45.334Z,73.07
2023-02-15T18:04:32.245Z,73.10
2023-02-15T18:07:18.343Z,73.25
2023-02-15T18:10:03.731Z,73.43
2023-02-15T18:12:37.748Z,73.77
2023-02-15T18:15:05.857Z,73.11
2023-02-15T18:17:43.138Z,73.64
2023-02-15T18:20:19.181Z,73.70
2023-02-15T18:22:49.126Z,73.61
2023-02-15T18:25:17.745Z,73.99
2023-02-15T18:27:44.342Z,73.45
2023-02-15T18:30:16.249Z,73.35
2023-02-15T18:32:43.373Z,73.48
2023-02-15T18:35:16.199Z,73.84
2023-02-15T18:37:43.081Z,73.97
2023-02-15T18:40:16.085Z,74.22
2023-02-15T18:42:47.086Z,74.40
2023-02-15T18:45:15.244Z,74.71
2023-02-15T18:47:41.754Z,74.10
2023-02-15T18:50:08.948Z,74.40
2023-02-15T18:52:37.922Z,74.49
2023-02-15T18:55:19.360Z,74.83
2023-02-15T18:57:47.291Z,74.38
2023-02-15T19:00:19.404Z,74.75
2023-02-15T19:02:46.078Z,75.23
2023-02-15T19:05:13.425Z,75.39
2023-02-15T19:07:40.666Z,75.54
2023-02-15T19:10:13.453Z,75.28
2023-02-15T19:12:40.041Z,75.65
2023-02-15T19:15:06.840Z,75.43
2023-02-15T19:17:33.395Z,75.53
2023-02-15T19:19:59.888Z,75.58
2023-02-15T19:22:30.066Z,75.32
2023-02-15T19:24:59.871Z,75.55
2023-02-15T19:27:29.925Z,75.56
2023-02-15T19:29:59.243Z,75.82
2023-02-15T19:32:26.147Z,75.79
2023-02-15T19:34:52.687Z,76.07
2023-02-15T19:37:42.240Z,76.41
2023-02-15T19:40:25.599Z,75.96
2023-02-15T19:42:52.302Z,76.08
2023-02-15T19:45:26.067Z,76.32
2023-02-15T19:47:53.896Z,76.09
2023-02-15T19:50:24.084Z,76.12
2023-02-15T19:52:51.086Z,76.28
2023-02-15T19:55:37.965Z,76.67
2023-02-15T19:58:12.057Z,76.74
2023-02-15T20:00:38.603Z,76.41
2023-02-15T20:03:05.281Z,76.39
2023-02-15T20:05:34.831Z,76.46
2023-02-15T20:08:03.916Z,76.07
2023-02-15T20:10:31.717Z,76.59
2023-02-15T20:12:58.565Z,76.66
2023-02-15T20:15:34.462Z,76.62
2023-02-15T20:18:06.783Z,76.85
2023-02-15T20:20:51.672Z,76.95
2023-02-15T20:23:18.391Z,77.37
2023-02-15T20:25:45.273Z,76.89
2023-02-15T20:28:23.126Z,77.33
2023-02-15T20:30:50.246Z,76.81
2023-02-15T20:33:18.138Z,77.18
2023-02-15T20:35:45.913Z,77.32
2023-02-15T20:38:32.886Z,77.48
2023-02-15T20:41:19.566Z,77.33
2023-02-15T20:43:46.187Z,77.67
2023-02-15T20:46:12.722Z,77.58
2023-02-15T20:48:39.298Z,77.46
2023-02-15T20:51:10.312Z,77.73
2023-02-15T20:53:36.868Z,77.74
2023-02-15T20:56:03.710Z,78.03
2023-02-15T20:58:30.828Z,78.18
2023-02-15T21:00:58.913Z,78.12
2023-02-15T21:03:30.814Z,78.20
2023-02-15T21:05:58.273Z,78.25
2023-02-15T21:08:25.498Z,78.59
2023-02-15T21:10:53.225Z,78.77
2023-02-15T21:13:25.680Z,78.73
2023-02-15T21:15:53.928Z,78.74
2023-02-15T21:18:27.357Z,78.56
2023-02-15T21:20:56.753Z,79.04
2023-02-15T21:23:26.291Z,79.39
2023-02-15T21:25:55.858Z,79.46
2023-02-15T21:28:24.615Z,79.61
2023-02-15T21:30:54.133Z,80.03
2023-02-15T21:33:21.026Z,79.99
2023-02-15T21:35:50.846Z,80.30
2023-02-15T21:38:21.189Z,80.33
2023-02-15T21:40:49.094Z,80.55
2023-02-15T21:43:39.256Z,80.73
2023-02-15T21:46:32.943Z,80.94
2023-02-15T21:48:59.608Z,80.65
2023-02-15T21:51:45.072Z,81.02
2023-02-15T21:54:13.572Z,80.99
2023-02-15T21:56:41.963Z,81.09
2023-02-15T21:59:12.829Z,81.19
2023-02-15T22:01:42.149Z,81.28
2023-02-15T22:04:14.460Z,81.59
2023-02-15T22:06:41.397Z,81.55
2023-02-15T22:09:19.482Z,81.59
2023-02-15T22:11:46.669Z,81.42
2023-02-15T22:14:34.220Z,81.95
2023-02-15T22:17:00.788Z,81.78
2023-02-15T22:19:28.794Z,82.02
2023-02-15T22:21:55.400Z,81.83
2023-02-15T22:24:22.009Z,81.73
2023-02-15T22:26:48.537Z,81.80
2023-02-15T22:29:18.336Z,81.94
2023-02-15T22:31:45.226Z,81.77
2023-02-15T22:34:27.066Z,82.50
2023-02-15T22:36:54.165Z,82.09
2023-02-15T22:39:22.181Z,82.12
2023-02-15T22:41:49.107Z,82.04
2023-02-15T22:44:24.034Z,82.36
2023-02-15T22:46:51.447Z,82.30
2023-02-15T22:49:18.617Z,82.13
2023-02-15T22:51:49.596Z,82.41
2023-02-15T22:54:17.517Z,82.24
2023-02-15T22:56:51.531Z,81.94
2023-02-15T22:59:29.604Z,82.80
2023-02-15T23:01:57.291Z,82.28
2023-02-15T23:04:26.422Z,82.28
2023-02-15T23:06:55.190Z,82.45
2023-02-15T23:09:22.357Z,82.44
2023-02-15T23:11:50.810Z,82.77
2023-02-15T23:14:27.467Z,82.97
2023-02-15T23:16:54.436Z,82.57
2023-02-15T23:19:21.504Z,82.96
2023-02-15T23:21:48.245Z,82.81
2023-02-15T23:24:26.068Z,82.98
2023-02-15T23:26:53.341Z,83.04
2023-02-15T23:29:23.885Z,82.65
2023-02-15T23:31:53.192Z,83.08
2023-02-15T23:34:37.958Z,83.06
2023-02-15T23:37:04.452Z,82.85
2023-02-15T23:39:49.696Z,82.81
2023-02-15T23:42:20.173Z,82.97
2023-02-15T23:44:47.998Z,83.26
2023-02-15T23:47:47.199Z,83.82
2023-02-15T23:50:28.801Z,83.74
2023-02-15T23:52:56.369Z,83.67
2023-02-15T23:55:27.450Z,83.52
2023-02-15T23:57:54.091Z,83.46
